Time;durP1;ratioP1;P1;durP2;ratioP2;P2;SDS_P1;SDS_P2;PMS_P1;PMS_P2;Temp;Humidity;BMP_temperature;BMP_pressure;BME280_temperature;BME280_humidity;BME280_pressure;Samples;Min_cycle;Max_cycle;Signal;HPM_P1;HPM_P2
2022/09/06 00:00:20;;;;;;;4.60;3.05;;;;;19.50;94333.00;;;;7395983;19;20149;-74
2022/09/06 00:02:48;;;;;;;6.30;2.83;;;;;19.50;94330.00;;;;7396128;19;20176;-74
2022/09/06 00:05:15;;;;;;;5.50;2.92;;;;;19.40;94322.00;;;;7397261;19;20149;-74
2022/09/06 00:07:49;;;;;;;4.88;2.90;;;;;19.50;94325.00;;;;7394943;19;20125;-74
2022/09/06 00:10:16;;;;;;;5.20;2.92;;;;;19.40;94321.00;;;;7394985;19;20605;-73
2022/09/06 00:12:44;;;;;;;2.75;2.50;;;;;19.40;94328.00;;;;7396430;19;20602;-73
2022/09/06 00:15:18;;;;;;;5.60;3.13;;;;;19.40;94321.00;;;;7394511;19;20639;-73
2022/09/06 00:17:46;;;;;;;6.03;3.03;;;;;19.60;94316.00;;;;7398463;19;20141;-73
2022/09/06 00:20:13;;;;;;;4.15;3.20;;;;;19.50;94321.00;;;;7395405;19;20604;-73
2022/09/06 00:22:54;;;;;;;5.57;3.15;;;;;19.60;94319.00;;;;7396376;19;20149;-73
2022/09/06 00:25:22;;;;;;;3.95;2.92;;;;;19.50;94319.00;;;;7397738;19;20152;-74
2022/09/06 00:28:04;;;;;;;5.05;2.80;;;;;19.60;94327.00;;;;7394663;19;20637;-73
2022/09/06 00:30:38;;;;;;;4.13;3.25;;;;;19.50;94327.00;;;;7394596;19;20148;-72
2022/09/06 00:33:13;;;;;;;3.53;2.72;;;;;19.40;94322.00;;;;7396122;19;20132;-73
2022/09/06 00:35:43;;;;;;;5.68;3.00;;;;;19.30;94326.00;;;;7396794;19;20125;-73
2022/09/06 00:38:10;;;;;;;3.20;2.90;;;;;19.10;94330.00;;;;7395207;19;20156;-73
2022/09/06 00:40:44;;;;;;;6.78;2.92;;;;;19.10;94329.00;;;;7394751;19;20620;-73
2022/09/06 00:43:11;;;;;;;9.73;3.75;;;;;18.90;94317.00;;;;7395567;19;20132;-73
2022/09/06 00:45:39;;;;;;;6.80;3.30;;;;;18.90;94318.00;;;;7396722;19;20646;-73
2022/09/06 00:48:14;;;;;;;5.05;2.72;;;;;18.90;94319.00;;;;7395738;19;20135;-73
2022/09/06 00:50:45;;;;;;;4.68;2.83;;;;;18.70;94315.00;;;;7395000;19;20774;-74
2022/09/06 00:53:13;;;;;;;2.90;2.47;;;;;18.70;94327.00;;;;7397484;19;20129;-74
2022/09/06 00:55:48;;;;;;;4.93;3.05;;;;;19.00;94320.00;;;;7395408;19;20148;-72
2022/09/06 00:58:15;;;;;;;4.10;2.75;;;;;19.10;94319.00;;;;7394515;19;20207;-75
2022/09/06 01:00:46;;;;;;;7.20;2.85;;;;;19.30;94318.00;;;;7396328;19;20148;-73
2022/09/06 01:03:23;;;;;;;4.30;2.78;;;;;19.40;94316.00;;;;7396284;19;20147;-73
2022/09/06 01:05:59;;;;;;;3.20;2.90;;;;;19.40;94313.00;;;;7394232;19;20145;-73
2022/09/06 01:08:52;;;;;;;5.07;3.10;;;;;19.50;94318.00;;;;7394470;19;20595;-72
2022/09/06 01:11:47;;;;;;;2.92;2.60;;;;;19.40;94312.00;;;;7395691;19;20542;-71
2022/09/06 01:15:04;;;;;;;3.35;2.67;;;;;19.40;94320.00;;;;7393805;19;20152;-74
2022/09/06 01:17:52;;;;;;;4.18;2.97;;;;;19.40;94318.00;;;;7395779;19;20622;-75
2022/09/06 01:20:45;;;;;;;4.60;2.83;;;;;19.60;94320.00;;;;7394845;19;20136;-74
2022/09/06 01:23:35;;;;;;;4.80;2.80;;;;;19.40;94320.00;;;;7398079;19;20579;-73
2022/09/06 01:26:36;;;;;;;3.65;3.00;;;;;19.30;94333.00;;;;7395138;19;20587;-74
2022/09/06 01:29:21;;;;;;;2.78;2.58;;;;;19.10;94338.00;;;;7394014;19;20156;-73
2022/09/06 01:32:31;;;;;;;3.78;2.88;;;;;19.00;94333.00;;;;7392133;19;20132;-74
2022/09/06 01:35:22;;;;;;;3.10;2.80;;;;;18.90;94340.00;;;;7391081;19;20476;-74
2022/09/06 01:37:59;;;;;;;2.92;2.45;;;;;18.80;94343.00;;;;7394290;19;20591;-74
2022/09/06 01:40:27;;;;;;;7.00;2.83;;;;;18.90;94368.00;;;;7392094;19;20131;-74
2022/09/06 01:42:56;;;;;;;4.90;2.88;;;;;19.00;94401.00;;;;7393850;19;20140;-74
2022/09/06 01:46:10;;;;;;;5.40;3.17;;;;;19.10;94411.00;;;;7394545;19;20124;-74
2022/09/06 01:48:53;;;;;;;4.55;3.22;;;;;19.10;94400.00;;;;7394695;19;20136;-74
2022/09/06 01:52:07;;;;;;;4.05;3.30;;;;;18.90;94397.00;;;;7391346;19;20530;-74
2022/09/06 01:55:00;;;;;;;3.90;2.90;;;;;19.00;94405.00;;;;7391899;19;20491;-75
2022/09/06 01:57:52;;;;;;;7.05;3.45;;;;;18.90;94393.00;;;;7394895;19;20149;-74
2022/09/06 02:00:24;;;;;;;3.70;2.60;;;;;18.90;94393.00;;;;7390670;19;20152;-75
2022/09/06 02:03:03;;;;;;;6.65;3.33;;;;;18.30;94408.00;;;;7392762;19;20535;-75
2022/09/06 02:05:43;;;;;;;6.78;3.30;;;;;17.90;94415.00;;;;7395866;19;20164;-73
2022/09/06 02:08:30;;;;;;;6.43;3.85;;;;;17.60;94414.00;;;;7392431;19;20132;-72
2022/09/06 02:11:03;;;;;;;4.93;3.40;;;;;17.60;94414.00;;;;7393158;19;20131;-74
2022/09/06 02:13:51;;;;;;;7.10;3.78;;;;;17.60;94414.00;;;;7394195;19;20156;-73
2022/09/06 02:16:23;;;;;;;3.47;3.17;;;;;17.70;94404.00;;;;7389080;19;20627;-74
2022/09/06 02:19:19;;;;;;;5.30;3.63;;;;;17.70;94404.00;;;;7389445;19;20615;-75
2022/09/06 02:21:48;;;;;;;5.07;3.65;;;;;17.90;94398.00;;;;7394427;19;20166;-74
2022/09/06 02:24:29;;;;;;;6.40;3.33;;;;;17.80;94383.00;;;;7392092;19;20603;-74
2022/09/06 02:26:57;;;;;;;5.20;3.33;;;;;17.80;94376.00;;;;7392602;19;20635;-73
2022/09/06 02:29:40;;;;;;;7.45;3.28;;;;;18.10;94373.00;;;;7391543;19;20206;-73
2022/09/06 02:32:22;;;;;;;7.40;3.05;;;;;17.90;94386.00;;;;7391311;19;20756;-73
2022/09/06 02:34:57;;;;;;;4.38;3.40;;;;;18.00;94383.00;;;;7391979;19;20144;-74
2022/09/06 02:37:25;;;;;;;3.67;3.10;;;;;18.00;94376.00;;;;7393490;19;20149;-73
2022/09/06 02:39:54;;;;;;;4.18;3.30;;;;;17.90;94378.00;;;;7390320;19;20146;-73
2022/09/06 02:42:29;;;;;;;4.75;3.22;;;;;17.90;94373.00;;;;7390167;19;20215;-73
2022/09/06 02:44:56;;;;;;;4.15;3.42;;;;;18.00;94368.00;;;;7392519;19;20124;-75
2022/09/06 02:47:24;;;;;;;5.00;2.90;;;;;17.90;94376.00;;;;7391399;19;20141;-74
2022/09/06 02:49:58;;;;;;;10.60;3.50;;;;;17.90;94361.00;;;;7391371;19;20136;-73
2022/09/06 02:52:26;;;;;;;4.07;2.92;;;;;17.80;94361.00;;;;7391641;19;20132;-74
2022/09/06 02:54:54;;;;;;;5.03;3.58;;;;;17.80;94355.00;;;;7392532;19;20503;-72
2022/09/06 02:57:28;;;;;;;4.25;3.20;;;;;17.80;94346.00;;;;7394029;19;20152;-73
2022/09/06 02:59:55;;;;;;;5.68;3.00;;;;;17.90;94349.00;;;;7389696;19;20136;-73
2022/09/06 03:02:24;;;;;;;4.50;3.00;;;;;17.80;94346.00;;;;7390319;19;20209;-73
2022/09/06 03:04:59;;;;;;;3.20;2.90;;;;;17.70;94354.00;;;;7401840;19;20587;-73
2022/09/06 03:07:26;;;;;;;4.57;3.28;;;;;17.70;94350.00;;;;7399978;19;20147;-73
2022/09/06 03:09:55;;;;;;;4.85;3.15;;;;;17.60;94363.00;;;;7396717;19;20498;-73
2022/09/06 03:12:30;;;;;;;7.07;3.55;;;;;17.60;94369.00;;;;7398710;19;20144;-73
2022/09/06 03:14:58;;;;;;;5.07;3.22;;;;;17.60;94364.00;;;;7398733;19;20579;-73
2022/09/06 03:17:25;;;;;;;5.60;2.80;;;;;17.60;94367.00;;;;7398480;19;20795;-74
2022/09/06 03:20:00;;;;;;;6.60;3.22;;;;;17.70;94351.00;;;;7397575;19;20714;-73
2022/09/06 03:22:27;;;;;;;5.85;3.38;;;;;17.70;94355.00;;;;7397378;19;20634;-73
2022/09/06 03:24:55;;;;;;;6.30;3.40;;;;;17.70;94352.00;;;;7399586;19;20146;-72
2022/09/06 03:27:29;;;;;;;7.05;3.22;;;;;17.70;94354.00;;;;7400426;19;20133;-73
2022/09/06 03:30:02;;;;;;;3.95;2.80;;;;;17.70;94350.00;;;;7394219;19;20149;-74
2022/09/06 03:32:38;;;;;;;3.40;3.10;;;;;17.90;94347.00;;;;7397826;19;20488;-74
2022/09/06 03:35:06;;;;;;;5.50;3.00;;;;;18.00;94350.00;;;;7398611;19;20129;-73
2022/09/06 03:37:34;;;;;;;3.80;2.75;;;;;18.00;94352.00;;;;7400198;19;20143;-73
2022/09/06 03:40:10;;;;;;;4.05;2.63;;;;;17.90;94340.00;;;;7398095;19;20128;-75
2022/09/06 03:42:37;;;;;;;5.53;3.20;;;;;17.90;94341.00;;;;7398541;19;20156;-73
2022/09/06 03:45:06;;;;;;;4.55;2.83;;;;;17.90;94345.00;;;;7398938;19;20133;-73
2022/09/06 03:47:41;;;;;;;5.15;2.80;;;;;17.70;94340.00;;;;7398460;19;20169;-75
2022/09/06 03:50:08;;;;;;;4.57;3.25;;;;;17.70;94339.00;;;;7396818;19;20621;-74
2022/09/06 03:52:36;;;;;;;3.17;2.80;;;;;17.90;94339.00;;;;7396144;19;20160;-74
2022/09/06 03:55:10;;;;;;;6.50;2.70;;;;;17.90;94347.00;;;;7397659;19;20148;-74
2022/09/06 03:57:38;;;;;;;3.17;2.30;;;;;17.80;94355.00;;;;7399550;19;20152;-75
2022/09/06 04:00:06;;;;;;;2.85;2.30;;;;;17.90;94353.00;;;;7395317;19;20154;-75
2022/09/06 04:02:40;;;;;;;2.40;2.20;;;;;17.90;94342.00;;;;7396175;19;20132;-74
2022/09/06 04:05:08;;;;;;;3.22;2.15;;;;;17.80;94341.00;;;;7397756;19;20556;-77
2022/09/06 04:07:36;;;;;;;4.43;2.20;;;;;17.80;94337.00;;;;7399856;19;20786;-75
2022/09/06 04:10:11;;;;;;;2.63;2.28;;;;;17.80;94327.00;;;;7395702;19;20216;-74
2022/09/06 04:12:38;;;;;;;2.58;2.38;;;;;17.70;94342.00;;;;7395131;19;20129;-74
2022/09/06 04:15:06;;;;;;;2.38;2.05;;;;;17.60;94353.00;;;;7396385;19;20153;-74
2022/09/06 04:17:44;;;;;;;2.17;1.92;;;;;17.50;94344.00;;;;7398853;19;20140;-74
2022/09/06 04:20:13;;;;;;;4.18;2.25;;;;;17.40;94346.00;;;;7393959;19;20153;-75
2022/09/06 04:22:47;;;;;;;7.60;2.70;;;;;17.40;94344.00;;;;7395836;19;20610;-74
2022/09/06 04:25:14;;;;;;;5.47;3.90;;;;;17.50;94351.00;;;;7398321;19;20141;-75
2022/09/06 04:27:45;;;;;;;8.07;4.70;;;;;17.40;94343.00;;;;7397603;19;20160;-74
2022/09/06 04:30:32;;;;;;;2.95;2.35;;;;;17.40;94347.00;;;;7391614;19;20156;-76
2022/09/06 04:33:07;;;;;;;2.53;2.33;;;;;17.30;94359.00;;;;7397681;19;20133;-76
2022/09/06 04:35:41;;;;;;;3.50;2.42;;;;;17.30;94354.00;;;;7399239;19;20124;-75
2022/09/06 04:38:08;;;;;;;3.08;2.15;;;;;17.20;94356.00;;;;7394018;19;20151;-75
2022/09/06 04:40:36;;;;;;;2.47;2.20;;;;;17.00;94349.00;;;;7394640;19;20172;-76
2022/09/06 04:43:10;;;;;;;4.35;2.38;;;;;16.80;94349.00;;;;7398162;19;20132;-76
2022/09/06 04:45:37;;;;;;;3.58;2.35;;;;;16.60;94349.00;;;;7397457;19;20141;-76
2022/09/06 04:48:05;;;;;;;3.03;2.70;;;;;16.50;94354.00;;;;7394093;19;20159;-75
2022/09/06 04:50:39;;;;;;;3.03;2.40;;;;;16.40;94350.00;;;;7393648;19;20742;-74
2022/09/06 04:53:09;;;;;;;4.00;2.67;;;;;16.40;94350.00;;;;7397689;19;20147;-75
2022/09/06 04:55:37;;;;;;;4.07;2.15;;;;;16.20;94350.00;;;;7395716;19;20631;-73
2022/09/06 04:58:12;;;;;;;2.75;2.25;;;;;16.10;94349.00;;;;7393334;19;20144;-74
2022/09/06 05:00:43;;;;;;;3.47;2.55;;;;;16.10;94349.00;;;;7395144;19;20597;-73
2022/09/06 05:03:10;;;;;;;3.28;2.72;;;;;16.10;94343.00;;;;7393961;19;20172;-74
2022/09/06 05:05:45;;;;;;;2.92;2.70;;;;;16.00;94351.00;;;;7396081;19;20734;-72
2022/09/06 05:08:12;;;;;;;3.40;2.90;;;;;16.10;94349.00;;;;7395671;19;20225;-73
2022/09/06 05:10:40;;;;;;;3.42;2.97;;;;;16.30;94348.00;;;;7393838;19;20137;-73
2022/09/06 05:13:14;;;;;;;10.70;4.00;;;;;16.40;94347.00;;;;7394025;19;20155;-73
2022/09/06 05:15:41;;;;;;;5.22;3.20;;;;;16.60;94349.00;;;;7397743;19;20154;-74
2022/09/06 05:18:09;;;;;;;5.05;3.25;;;;;16.60;94350.00;;;;7394634;19;20627;-74
2022/09/06 05:20:43;;;;;;;6.80;3.38;;;;;16.50;94352.00;;;;7391638;19;20550;-73
2022/09/06 05:23:10;;;;;;;3.88;3.35;;;;;16.60;94355.00;;;;7395168;19;20608;-76
2022/09/06 05:25:38;;;;;;;3.45;3.13;;;;;16.60;94352.00;;;;7391862;19;20144;-74
2022/09/06 05:28:25;;;;;;;6.00;3.95;;;;;16.80;94351.00;;;;7390788;19;20176;-74
2022/09/06 05:31:11;;;;;;;10.38;4.07;;;;;16.90;94356.00;;;;7393784;19;20166;-75
2022/09/06 05:33:46;;;;;;;5.53;3.72;;;;;17.10;94353.00;;;;7394811;19;20200;-74
2022/09/06 05:36:13;;;;;;;4.90;3.25;;;;;17.40;94352.00;;;;7392194;19;20604;-74
2022/09/06 05:38:41;;;;;;;4.10;3.15;;;;;17.70;94350.00;;;;7393274;19;20137;-73
2022/09/06 05:41:15;;;;;;;5.13;3.70;;;;;18.00;94349.00;;;;7393719;19;20775;-75
2022/09/06 05:43:42;;;;;;;5.63;4.05;;;;;18.20;94349.00;;;;7395608;19;20216;-73
2022/09/06 05:46:10;;;;;;;7.72;3.67;;;;;18.30;94346.00;;;;7391890;19;20603;-75
2022/09/06 05:48:52;;;;;;;6.25;3.33;;;;;18.30;94344.00;;;;7392387;19;20170;-75
2022/09/06 05:51:20;;;;;;;5.93;3.55;;;;;18.30;94351.00;;;;7392439;19;20125;-75
2022/09/06 05:53:54;;;;;;;4.15;3.55;;;;;18.30;94347.00;;;;7392289;19;20513;-75
2022/09/06 05:56:22;;;;;;;6.88;3.60;;;;;18.20;94352.00;;;;7391592;19;20642;-75
2022/09/06 05:58:49;;;;;;;4.55;3.40;;;;;18.20;94351.00;;;;7392184;19;20175;-75
2022/09/06 06:01:25;;;;;;;5.85;3.50;;;;;18.00;94355.00;;;;7394755;19;20145;-74
2022/09/06 06:04:00;;;;;;;8.07;3.60;;;;;17.90;94358.00;;;;7390477;19;20176;-74
2022/09/06 06:06:35;;;;;;;5.65;3.47;;;;;17.80;94369.00;;;;7392040;19;20872;-75
2022/09/06 06:09:02;;;;;;;4.15;3.72;;;;;17.90;94368.00;;;;7394379;19;20133;-75
2022/09/06 06:11:30;;;;;;;5.50;3.67;;;;;17.90;94369.00;;;;7395070;19;20153;-75
2022/09/06 06:14:04;;;;;;;6.53;3.38;;;;;18.00;94375.00;;;;7391422;19;20137;-74
2022/09/06 06:16:32;;;;;;;5.38;3.80;;;;;18.10;94370.00;;;;7391759;19;20152;-75
2022/09/06 06:18:59;;;;;;;6.60;3.80;;;;;18.20;94375.00;;;;7395286;19;20526;-74
2022/09/06 06:21:34;;;;;;;4.47;3.30;;;;;18.40;94373.00;;;;7393005;19;20144;-75
2022/09/06 06:24:03;;;;;;;5.78;3.70;;;;;18.60;94369.00;;;;7390704;19;20140;-75
2022/09/06 06:26:33;;;;;;;3.67;3.38;;;;;18.80;94370.00;;;;7392179;19;20137;-75
2022/09/06 06:29:23;;;;;;;4.80;3.63;;;;;19.00;94367.00;;;;7384541;19;20640;-75
2022/09/06 06:31:57;;;;;;;4.68;3.67;;;;;19.20;94372.00;;;;7384250;19;20161;-74
2022/09/06 06:34:31;;;;;;;5.10;3.17;;;;;19.30;94377.00;;;;7385495;19;20148;-74
2022/09/06 06:36:59;;;;;;;3.90;3.05;;;;;19.30;94372.00;;;;7387838;19;20166;-75
2022/09/06 06:39:26;;;;;;;5.63;3.58;;;;;19.30;94374.00;;;;7386992;19;20160;-74
2022/09/06 06:42:00;;;;;;;5.78;3.30;;;;;19.40;94373.00;;;;7384780;19;20634;-74
2022/09/06 06:44:27;;;;;;;7.15;3.53;;;;;19.40;94379.00;;;;7386490;19;20160;-75
2022/09/06 06:46:56;;;;;;;4.70;3.42;;;;;19.60;94371.00;;;;7392315;19;20169;-74
2022/09/06 06:49:31;;;;;;;10.60;3.50;;;;;19.60;94372.00;;;;7393475;19;20145;-74
2022/09/06 06:51:58;;;;;;;5.78;3.70;;;;;19.70;94368.00;;;;7387412;19;20643;-74
2022/09/06 06:54:26;;;;;;;5.78;3.53;;;;;19.80;94383.00;;;;7391026;19;20667;-75
2022/09/06 06:57:00;;;;;;;5.72;3.33;;;;;19.70;94380.00;;;;7390840;19;20635;-75
2022/09/06 06:59:27;;;;;;;5.35;3.50;;;;;19.70;94389.00;;;;7392021;19;20160;-74
2022/09/06 07:01:55;;;;;;;4.88;3.55;;;;;19.70;94380.00;;;;7387851;19;20639;-74
2022/09/06 07:04:29;;;;;;;7.13;3.53;;;;;19.80;94381.00;;;;7386896;19;20173;-75
2022/09/06 07:06:57;;;;;;;4.25;3.22;;;;;20.00;94364.00;;;;7389400;19;20863;-75
2022/09/06 07:09:45;;;;;;;7.35;3.95;;;;;20.50;94358.00;;;;7388171;19;20152;-74
2022/09/06 07:12:40;;;;;;;5.40;3.03;;;;;20.80;94364.00;;;;7389909;19;20644;-73
2022/09/06 07:15:08;;;;;;;6.97;3.75;;;;;21.10;94359.00;;;;7390534;19;20619;-74
2022/09/06 07:17:42;;;;;;;7.68;3.55;;;;;21.30;94365.00;;;;7390620;19;20148;-74
2022/09/06 07:20:10;;;;;;;5.25;3.42;;;;;21.60;94360.00;;;;7390895;19;20141;-74
2022/09/06 07:23:04;;;;;;;6.30;3.58;;;;;21.80;94358.00;;;;7388028;19;20141;-73
2022/09/06 07:25:58;;;;;;;5.22;3.40;;;;;22.30;94363.00;;;;7390101;19;20149;-73
2022/09/06 07:28:25;;;;;;;7.30;3.20;;;;;22.70;94357.00;;;;7391033;19;20192;-76
2022/09/06 07:31:05;;;;;;;6.03;3.50;;;;;22.90;94357.00;;;;7390886;19;20208;-74
2022/09/06 07:33:53;;;;;;;4.57;3.40;;;;;23.20;94365.00;;;;7388521;19;20196;-74
2022/09/06 07:36:28;;;;;;;5.68;3.20;;;;;23.10;94359.00;;;;7389546;19;20639;-74
2022/09/06 07:38:55;;;;;;;6.05;3.72;;;;;23.10;94362.00;;;;7390681;19;20612;-74
2022/09/06 07:41:23;;;;;;;10.05;3.75;;;;;23.10;94355.00;;;;7392050;19;20483;-74
2022/09/06 07:43:57;;;;;;;6.25;3.50;;;;;23.40;94347.00;;;;7387789;19;20136;-73
2022/09/06 07:46:27;;;;;;;6.50;3.47;;;;;23.50;94352.00;;;;7390167;19;20638;-74
2022/09/06 07:48:55;;;;;;;6.35;3.50;;;;;23.60;94347.00;;;;7391230;19;20498;-73
2022/09/06 07:51:29;;;;;;;5.68;3.80;;;;;23.50;94357.00;;;;7397255;19;20533;-74
2022/09/06 07:53:56;;;;;;;4.43;3.00;;;;;23.60;94349.00;;;;7393969;19;20125;-73
2022/09/06 07:56:44;;;;;;;6.45;3.40;;;;;23.90;94348.00;;;;7395840;19;20140;-74
2022/09/06 07:59:32;;;;;;;9.85;3.15;;;;;24.20;94351.00;;;;7398966;19;20145;-74
2022/09/06 08:01:59;;;;;;;4.78;3.75;;;;;24.60;94342.00;;;;7395433;19;20133;-74
2022/09/06 08:04:33;;;;;;;8.10;3.50;;;;;24.90;94327.00;;;;7393714;19;20148;-74
2022/09/06 08:07:01;;;;;;;6.43;3.15;;;;;25.00;94336.00;;;;7398910;19;20583;-75
2022/09/06 08:09:48;;;;;;;4.25;3.13;;;;;24.60;94345.00;;;;7397028;19;20906;-73
2022/09/06 08:12:22;;;;;;;6.47;3.42;;;;;24.80;94364.00;;;;7395263;19;20164;-72
2022/09/06 08:14:50;;;;;;;10.88;3.40;;;;;25.00;94366.00;;;;7395819;19;20152;-75
2022/09/06 08:17:17;;;;;;;8.57;3.10;;;;;25.20;94358.00;;;;7396603;19;20128;-75
2022/09/06 08:19:51;;;;;;;6.47;4.38;;;;;25.60;94351.00;;;;7394173;19;20620;-73
2022/09/06 08:22:19;;;;;;;10.25;3.10;;;;;25.80;94355.00;;;;7394005;19;20612;-74
2022/09/06 08:24:46;;;;;;;8.23;4.10;;;;;26.10;94355.00;;;;7397264;19;20510;-72
2022/09/06 08:27:20;;;;;;;4.95;3.38;;;;;26.00;94355.00;;;;7397235;19;20614;-74
2022/09/06 08:29:54;;;;;;;8.57;3.72;;;;;26.20;94369.00;;;;7395546;19;20671;-73
2022/09/06 08:32:31;;;;;;;4.18;3.78;;;;;25.90;94361.00;;;;7395819;19;20591;-74
2022/09/06 08:34:59;;;;;;;9.02;3.42;;;;;25.50;94369.00;;;;7397278;19;20140;-76
2022/09/06 08:37:26;;;;;;;7.50;3.70;;;;;25.70;94369.00;;;;7395194;19;20136;-74
2022/09/06 08:40:01;;;;;;;3.85;3.50;;;;;25.60;94364.00;;;;7393658;19;20509;-74
2022/09/06 08:42:30;;;;;;;4.68;3.30;;;;;25.60;94370.00;;;;7394787;19;20145;-74
2022/09/06 08:44:59;;;;;;;5.15;3.38;;;;;25.40;94364.00;;;;7398201;19;20133;-71
2022/09/06 08:47:32;;;;;;;6.47;3.67;;;;;25.10;94371.00;;;;7396307;19;20890;-72
2022/09/06 08:50:06;;;;;;;7.28;3.80;;;;;25.40;94369.00;;;;7395226;19;20132;-75
2022/09/06 08:52:49;;;;;;;5.85;3.55;;;;;25.30;94369.00;;;;7395463;19;20160;-75
2022/09/06 08:55:52;;;;;;;4.90;3.53;;;;;25.10;94374.00;;;;7398641;19;20612;-73
2022/09/06 08:59:05;;;;;;;4.00;3.53;;;;;24.70;94373.00;;;;7389107;19;20154;-74
2022/09/06 09:02:03;;;;;;;9.23;4.13;;;;;24.60;94369.00;;;;7392811;19;20128;-73
2022/09/06 09:04:46;;;;;;;5.80;3.60;;;;;24.80;94380.00;;;;7392964;19;20626;-73
2022/09/06 09:07:31;;;;;;;4.82;3.63;;;;;24.70;94381.00;;;;7397340;19;20124;-75
2022/09/06 09:10:14;;;;;;;6.07;3.00;;;;;24.70;94390.00;;;;7395335;19;20664;-74
2022/09/06 09:12:46;;;;;;;7.28;3.65;;;;;24.90;94387.00;;;;7394079;19;20227;-74
2022/09/06 09:15:21;;;;;;;6.43;4.15;;;;;25.40;94380.00;;;;7395383;19;20516;-73
2022/09/06 09:17:51;;;;;;;8.55;3.17;;;;;25.90;94374.00;;;;7398456;19;20127;-74
2022/09/06 09:20:19;;;;;;;4.80;2.05;;;;;25.70;94371.00;;;;7394467;19;20672;-76
2022/09/06 09:22:54;;;;;;;6.05;2.08;;;;;25.70;94366.00;;;;7394395;19;20168;-74
2022/09/06 09:25:23;;;;;;;9.30;1.90;;;;;25.90;94378.00;;;;7394942;19;20144;-75
2022/09/06 09:27:59;;;;;;;5.93;1.80;;;;;26.20;94372.00;;;;7392385;19;20534;-74
2022/09/06 09:30:52;;;;;;;3.80;1.67;;;;;26.20;94375.00;;;;7391020;19;20197;-74
2022/09/06 09:33:40;;;;;;;4.78;1.52;;;;;26.00;94366.00;;;;7396179;19;20576;-72
2022/09/06 09:36:16;;;;;;;4.30;1.70;;;;;26.00;94370.00;;;;7392095;19;20153;-74
2022/09/06 09:38:45;;;;;;;4.90;1.70;;;;;26.10;94360.00;;;;7392008;19;20538;-73
2022/09/06 09:41:34;;;;;;;5.03;2.03;;;;;26.50;94361.00;;;;7395193;19;20148;-75
2022/09/06 09:44:16;;;;;;;3.25;1.83;;;;;27.10;94363.00;;;;7392432;19;20133;-74
2022/09/06 09:46:44;;;;;;;2.50;1.60;;;;;26.40;94356.00;;;;7393197;19;20168;-75
2022/09/06 09:49:24;;;;;;;1.85;1.40;;;;;26.20;94361.00;;;;7394565;19;20223;-75
2022/09/06 09:52:05;;;;;;;4.32;1.98;;;;;26.60;94358.00;;;;7394740;19;20589;-74
2022/09/06 09:54:43;;;;;;;4.82;2.20;;;;;26.80;94363.00;;;;7391484;19;20208;-75
2022/09/06 09:57:15;;;;;;;4.38;2.05;;;;;26.60;94364.00;;;;7393719;19;20148;-75
2022/09/06 09:59:59;;;;;;;7.35;2.75;;;;;26.10;94367.00;;;;7392099;19;20152;-75
2022/09/06 10:02:40;;;;;;;5.68;2.10;;;;;25.90;94368.00;;;;7394521;19;20143;-75
2022/09/06 10:05:16;;;;;;;6.65;2.22;;;;;25.90;94364.00;;;;7394874;19;20544;-74
2022/09/06 10:07:49;;;;;;;4.07;2.00;;;;;25.90;94364.00;;;;7396465;19;20141;-74
2022/09/06 10:10:41;;;;;;;4.30;2.35;;;;;25.90;94361.00;;;;7391311;19;20636;-75
2022/09/06 10:13:30;;;;;;;3.40;2.00;;;;;25.80;94360.00;;;;7393480;19;20484;-75
2022/09/06 10:16:04;;;;;;;7.35;2.30;;;;;25.90;94360.00;;;;7391952;19;20180;-76
2022/09/06 10:18:32;;;;;;;5.18;2.05;;;;;25.90;94355.00;;;;7392522;19;20136;-74
2022/09/06 10:21:10;;;;;;;3.30;2.10;;;;;26.10;94356.00;;;;7393281;19;20500;-73
2022/09/06 10:24:05;;;;;;;6.63;2.13;;;;;26.10;94355.00;;;;7394304;19;20120;-73
2022/09/06 10:26:58;;;;;;;6.93;1.98;;;;;26.20;94359.00;;;;7392993;19;20172;-74
2022/09/06 10:30:03;;;;;;;5.18;2.40;;;;;26.30;94356.00;;;;7393591;19;20183;-74
2022/09/06 10:33:05;;;;;;;7.22;1.90;;;;;26.80;94355.00;;;;7392759;19;20891;-73
2022/09/06 10:35:41;;;;;;;9.73;2.28;;;;;27.20;94337.00;;;;7393616;19;20145;-72
2022/09/06 10:38:31;;;;;;;4.72;1.90;;;;;27.20;94340.00;;;;7388323;19;20501;-75
2022/09/06 10:41:55;;;;;;;4.35;2.33;;;;;26.90;94332.00;;;;7392661;19;20626;-76
2022/09/06 10:44:41;;;;;;;5.15;1.98;;;;;26.90;94324.00;;;;7387697;19;20246;-72
2022/09/06 10:47:16;;;;;;;7.03;1.90;;;;;27.00;94325.00;;;;7389173;19;20615;-74
2022/09/06 10:49:51;;;;;;;5.70;2.35;;;;;27.40;94323.00;;;;7386853;19;20161;-75
2022/09/06 10:52:37;;;;;;;3.10;2.05;;;;;27.80;94321.00;;;;7387285;19;20753;-72
2022/09/06 10:55:09;;;;;;;6.78;2.10;;;;;28.40;94323.00;;;;7385897;19;20175;-76
2022/09/06 10:57:56;;;;;;;7.22;2.10;;;;;28.50;94323.00;;;;7387939;19;20137;-74
2022/09/06 11:00:46;;;;;;;8.93;2.13;;;;;28.90;94320.00;;;;7385839;19;20149;-74
2022/09/06 11:03:38;;;;;;;5.60;2.38;;;;;28.90;94330.00;;;;7385638;19;20620;-76
2022/09/06 11:06:32;;;;;;;6.15;2.85;;;;;28.70;94336.00;;;;7383974;19;20255;-75
2022/09/06 11:09:26;;;;;;;7.63;2.85;;;;;28.10;94345.00;;;;7385912;19;20181;-73
2022/09/06 11:12:15;;;;;;;6.97;2.75;;;;;27.40;94347.00;;;;7383692;19;20513;-74
2022/09/06 11:14:49;;;;;;;5.95;2.72;;;;;26.80;94344.00;;;;7384882;19;20137;-75
2022/09/06 11:17:19;;;;;;;8.77;3.05;;;;;26.50;94350.00;;;;7386386;19;20152;-74
2022/09/06 11:20:01;;;;;;;5.40;2.50;;;;;26.20;94357.00;;;;7386696;19;20164;-74
2022/09/06 11:22:50;;;;;;;5.28;2.70;;;;;26.00;94357.00;;;;7385018;19;20757;-74
2022/09/06 11:25:26;;;;;;;7.65;2.53;;;;;25.90;94350.00;;;;7388310;19;20605;-72
2022/09/06 11:28:04;;;;;;;6.25;2.53;;;;;25.70;94343.00;;;;7390282;19;20234;-76
2022/09/06 11:30:52;;;;;;;8.82;2.70;;;;;25.50;94350.00;;;;7389525;19;20185;-75
2022/09/06 11:33:38;;;;;;;7.00;2.90;;;;;25.40;94346.00;;;;7393518;19;20133;-73
2022/09/06 11:36:36;;;;;;;8.93;2.83;;;;;25.10;94353.00;;;;7394198;19;20185;-73
2022/09/06 11:39:11;;;;;;;9.20;2.45;;;;;25.00;94337.00;;;;7391054;19;20158;-76
2022/09/06 11:41:41;;;;;;;9.05;2.90;;;;;25.30;94344.00;;;;7397536;19;20137;-75
2022/09/06 11:44:09;;;;;;;8.52;3.00;;;;;25.10;94351.00;;;;7390941;19;20153;-75
2022/09/06 11:46:44;;;;;;;5.28;2.78;;;;;24.90;94340.00;;;;7392763;19;20611;-75
2022/09/06 11:49:14;;;;;;;9.30;2.65;;;;;24.60;94344.00;;;;7393906;19;20144;-74
2022/09/06 11:51:43;;;;;;;8.32;2.70;;;;;24.50;94347.00;;;;7395380;19;20129;-74
2022/09/06 11:54:26;;;;;;;7.45;2.50;;;;;24.30;94343.00;;;;7391717;19;20152;-74
2022/09/06 11:57:12;;;;;;;7.32;3.13;;;;;24.30;94337.00;;;;7392206;19;20457;-73
2022/09/06 11:59:46;;;;;;;6.68;3.22;;;;;24.30;94344.00;;;;7393230;19;20152;-75
2022/09/06 12:02:31;;;;;;;5.10;3.17;;;;;24.20;94348.00;;;;7390935;19;20205;-74
2022/09/06 12:05:08;;;;;;;5.85;3.17;;;;;24.00;94351.00;;;;7393419;19;20172;-75
2022/09/06 12:08:14;;;;;;;9.02;3.50;;;;;24.30;94349.00;;;;7393876;19;20685;-75
2022/09/06 12:11:23;;;;;;;12.20;3.50;;;;;24.60;94349.00;;;;7392399;19;20133;-76
2022/09/06 12:14:08;;;;;;;12.43;3.80;;;;;24.80;94327.00;;;;7388352;19;20219;-75
2022/09/06 12:17:08;;;;;;;7.00;3.47;;;;;26.10;94332.00;;;;7391079;19;20172;-75
2022/09/06 12:19:58;;;;;;;7.38;3.20;;;;;26.90;94321.00;;;;7391277;19;20149;-77
2022/09/06 12:22:32;;;;;;;6.57;3.40;;;;;27.00;94331.00;;;;7389416;19;20129;-75
2022/09/06 12:25:18;;;;;;;10.43;3.00;;;;;25.80;94338.00;;;;7391709;19;20128;-73
2022/09/06 12:27:58;;;;;;;10.32;3.70;;;;;25.20;94335.00;;;;7388241;19;20140;-74
2022/09/06 12:30:49;;;;;;;6.53;2.88;;;;;25.00;94333.00;;;;7387564;19;20203;-75
2022/09/06 12:33:35;;;;;;;6.30;3.05;;;;;25.10;94304.00;;;;7390977;19;20607;-74
2022/09/06 12:36:35;;;;;;;8.13;3.25;;;;;26.70;94314.00;;;;7388395;19;20199;-74
2022/09/06 12:39:13;;;;;;;5.95;3.20;;;;;26.10;94311.00;;;;7391175;19;20153;-74
2022/09/06 12:41:48;;;;;;;5.55;3.00;;;;;25.70;94305.00;;;;7391247;19;20603;-74
2022/09/06 12:44:50;;;;;;;5.05;3.15;;;;;25.20;94318.00;;;;7389255;19;20747;-76
2022/09/06 12:47:29;;;;;;;5.35;2.75;;;;;25.00;94312.00;;;;7390835;19;20160;-74
2022/09/06 12:50:16;;;;;;;4.90;3.05;;;;;24.80;94316.00;;;;7390419;19;20133;-74
2022/09/06 12:52:49;;;;;;;11.30;3.10;;;;;24.10;94317.00;;;;7391737;19;20125;-73
2022/09/06 12:55:26;;;;;;;10.68;3.50;;;;;23.30;94317.00;;;;7391332;19;20129;-75
2022/09/06 12:57:57;;;;;;;14.85;3.10;;;;;22.50;94330.00;;;;7386181;19;20790;-76
2022/09/06 13:00:41;;;;;;;5.57;2.75;;;;;21.90;94343.00;;;;7390398;19;20476;-75
2022/09/06 13:03:41;;;;;;;29.67;6.75;;;;;21.30;94336.00;;;;7389141;19;20179;-79